Moses Lake, Washington
Current Conditions -  °F | °C
As of 7:52 PM on Tuesday 21 Oct 2014 (Local Time) from KMWH Reporting Station
Clear Clear  
Wind Chill: 53°   Ceiling: Unl
Heat Index: 53°   Visibility: 10mi
Dew Point: 43°   Wind: 7mph
Humidity: 69%   Direction: 160°SSE
Pressure: 29.93"   Gusts: NA
Location:  47.13°N, 119.27°W
Report Text: KMWH 220252Z 16006KT 10SM CLR 12/06 A2993 RMK AO2 SLP138 T01170061 50002
Loading
Personal Weather Stations






























Interactive Weather Map
Tropical Storm Tracking
New forecast layout! Learn more

10-Day Weather Forecast

Advertisements
Track Severe Weather on mobile